Terminal Aerodrome Forecast
Issued by NWS

Home | Current Version | Previous Version | Text Only | Print | Product List | Glossary On
Versions: 1 2 3 4 5 6 7 8 9 10 11 12 13
000
FTUS41 KBTV 252331
TAFMSS
TAF
KMSS 252331Z 2600/2624 05013G20KT P6SM -SHRA SCT025 OVC040
      TEMPO 2600/2604 5SM -SHRA BR SCT015 OVC025
     FM260400 04011G17KT P6SM VCSH OVC015
     FM260900 04007KT P6SM VCSH OVC008
     FM261400 03011G18KT P6SM -SHRA OVC007
     FM261800 03010G16KT 5SM -SHRA BR OVC007
     FM262100 02007G14KT P6SM OVC012=

USA.gov is the U.S. government's official web portal to all federal, state and local government web resources and services.